sensor_id;sensor_type;location;lat;lon;timestamp;pressure;altitude;pressure_sealevel;temperature;humidity
10921;BME280;5513;50.580;8.818;2022-12-20T00:02:01;99579.84;;;2.49;100.00
10921;BME280;5513;50.580;8.818;2022-12-20T00:04:30;99584.97;;;2.53;100.00
10921;BME280;5513;50.580;8.818;2022-12-20T00:06:58;99577.19;;;2.52;100.00
10921;BME280;5513;50.580;8.818;2022-12-20T00:09:28;99579.59;;;2.59;100.00
10921;BME280;5513;50.580;8.818;2022-12-20T00:11:58;99578.91;;;2.53;100.00
10921;BME280;5513;50.580;8.818;2022-12-20T00:14:28;99576.19;;;2.56;100.00
10921;BME280;5513;50.580;8.818;2022-12-20T00:16:56;99561.50;;;2.52;100.00
10921;BME280;5513;50.580;8.818;2022-12-20T00:19:26;99555.41;;;2.50;100.00
10921;BME280;5513;50.580;8.818;2022-12-20T00:21:57;99563.94;;;2.58;100.00
10921;BME280;5513;50.580;8.818;2022-12-20T00:24:25;99560.16;;;2.70;100.00
10921;BME280;5513;50.580;8.818;2022-12-20T00:26:53;99560.28;;;2.65;100.00
10921;BME280;5513;50.580;8.818;2022-12-20T00:29:22;99553.19;;;2.69;100.00
10921;BME280;5513;50.580;8.818;2022-12-20T00:31:51;99553.53;;;2.56;100.00
10921;BME280;5513;50.580;8.818;2022-12-20T00:34:20;99554.50;;;2.52;100.00
10921;BME280;5513;50.580;8.818;2022-12-20T00:36:50;99547.38;;;2.57;100.00
10921;BME280;5513;50.580;8.818;2022-12-20T00:39:19;99542.13;;;2.59;100.00
10921;BME280;5513;50.580;8.818;2022-12-20T00:41:49;99543.06;;;2.56;100.00
10921;BME280;5513;50.580;8.818;2022-12-20T00:44:19;99536.75;;;2.65;100.00
10921;BME280;5513;50.580;8.818;2022-12-20T00:46:48;99532.72;;;2.52;100.00
10921;BME280;5513;50.580;8.818;2022-12-20T00:49:16;99535.97;;;2.62;100.00
10921;BME280;5513;50.580;8.818;2022-12-20T00:51:45;99522.75;;;2.66;100.00
10921;BME280;5513;50.580;8.818;2022-12-20T00:54:15;99514.88;;;2.68;100.00
10921;BME280;5513;50.580;8.818;2022-12-20T00:56:44;99514.88;;;2.68;100.00
10921;BME280;5513;50.580;8.818;2022-12-20T00:59:13;99520.84;;;2.73;100.00
10921;BME280;5513;50.580;8.818;2022-12-20T01:01:41;99526.00;;;2.76;100.00
10921;BME280;5513;50.580;8.818;2022-12-20T01:04:10;99521.72;;;2.73;100.00
10921;BME280;5513;50.580;8.818;2022-12-20T01:06:38;99519.19;;;2.70;100.00
10921;BME280;5513;50.580;8.818;2022-12-20T01:09:07;99516.44;;;2.75;100.00
10921;BME280;5513;50.580;8.818;2022-12-20T01:11:38;99530.56;;;2.68;100.00
10921;BME280;5513;50.580;8.818;2022-12-20T01:14:09;99529.81;;;2.64;100.00
10921;BME280;5513;50.580;8.818;2022-12-20T01:16:41;99525.28;;;2.71;100.00
10921;BME280;5513;50.580;8.818;2022-12-20T01:19:13;99526.91;;;2.75;100.00
10921;BME280;5513;50.580;8.818;2022-12-20T01:21:42;99523.34;;;2.77;100.00
10921;BME280;5513;50.580;8.818;2022-12-20T01:24:11;99524.94;;;2.83;100.00
10921;BME280;5513;50.580;8.818;2022-12-20T01:26:41;99516.47;;;2.73;100.00
10921;BME280;5513;50.580;8.818;2022-12-20T01:29:10;99525.22;;;2.72;100.00
10921;BME280;5513;50.580;8.818;2022-12-20T01:31:40;99517.19;;;2.78;100.00
10921;BME280;5513;50.580;8.818;2022-12-20T01:34:09;99510.41;;;2.73;100.00
10921;BME280;5513;50.580;8.818;2022-12-20T01:36:37;99507.81;;;2.71;100.00
10921;BME280;5513;50.580;8.818;2022-12-20T01:39:08;99509.50;;;2.74;100.00
10921;BME280;5513;50.580;8.818;2022-12-20T01:41:41;99499.75;;;2.80;100.00
10921;BME280;5513;50.580;8.818;2022-12-20T01:47:12;99501.50;;;2.78;100.00
10921;BME280;5513;50.580;8.818;2022-12-20T01:49:45;99514.56;;;2.80;100.00
10921;BME280;5513;50.580;8.818;2022-12-20T01:52:19;99517.91;;;2.85;100.00
10921;BME280;5513;50.580;8.818;2022-12-20T01:54:52;99525.00;;;2.81;100.00
10921;BME280;5513;50.580;8.818;2022-12-20T01:57:30;99513.00;;;2.73;100.00
10921;BME280;5513;50.580;8.818;2022-12-20T02:00:05;99495.31;;;2.82;100.00
10921;BME280;5513;50.580;8.818;2022-12-20T02:02:34;99486.91;;;2.70;100.00
10921;BME280;5513;50.580;8.818;2022-12-20T02:05:05;99496.47;;;2.72;100.00
10921;BME280;5513;50.580;8.818;2022-12-20T02:07:34;99510.63;;;2.64;100.00
10921;BME280;5513;50.580;8.818;2022-12-20T02:10:05;99506.94;;;2.72;100.00
10921;BME280;5513;50.580;8.818;2022-12-20T02:12:40;99476.34;;;2.74;100.00
10921;BME280;5513;50.580;8.818;2022-12-20T02:15:31;99496.53;;;2.69;100.00
10921;BME280;5513;50.580;8.818;2022-12-20T02:18:14;99495.72;;;2.67;100.00
10921;BME280;5513;50.580;8.818;2022-12-20T02:23:47;99476.09;;;2.83;100.00
10921;BME280;5513;50.580;8.818;2022-12-20T02:26:44;99458.81;;;2.78;100.00
10921;BME280;5513;50.580;8.818;2022-12-20T02:29:24;99456.44;;;2.70;100.00
10921;BME280;5513;50.580;8.818;2022-12-20T02:32:02;99462.41;;;2.74;100.00
10921;BME280;5513;50.580;8.818;2022-12-20T02:34:34;99456.34;;;2.73;100.00
10921;BME280;5513;50.580;8.818;2022-12-20T02:37:04;99457.19;;;2.74;100.00
10921;BME280;5513;50.580;8.818;2022-12-20T02:39:33;99454.56;;;2.74;100.00
10921;BME280;5513;50.580;8.818;2022-12-20T02:42:04;99459.00;;;2.72;100.00
10921;BME280;5513;50.580;8.818;2022-12-20T02:44:36;99458.91;;;2.75;100.00
10921;BME280;5513;50.580;8.818;2022-12-20T02:47:27;99463.44;;;2.68;100.00
10921;BME280;5513;50.580;8.818;2022-12-20T02:49:58;99461.41;;;2.78;100.00
10921;BME280;5513;50.580;8.818;2022-12-20T02:52:28;99462.56;;;2.68;100.00
10921;BME280;5513;50.580;8.818;2022-12-20T02:54:58;99461.56;;;2.73;100.00
10921;BME280;5513;50.580;8.818;2022-12-20T02:57:33;99460.97;;;2.64;100.00
10921;BME280;5513;50.580;8.818;2022-12-20T03:00:07;99453.03;;;2.67;100.00
10921;BME280;5513;50.580;8.818;2022-12-20T03:02:39;99447.94;;;2.62;100.00
10921;BME280;5513;50.580;8.818;2022-12-20T03:05:29;99445.31;;;2.62;100.00
10921;BME280;5513;50.580;8.818;2022-12-20T03:07:58;99454.06;;;2.61;100.00
10921;BME280;5513;50.580;8.818;2022-12-20T03:10:27;99457.28;;;2.69;100.00
10921;BME280;5513;50.580;8.818;2022-12-20T03:12:56;99447.69;;;2.71;100.00
10921;BME280;5513;50.580;8.818;2022-12-20T03:15:25;99450.53;;;2.62;100.00
10921;BME280;5513;50.580;8.818;2022-12-20T03:17:55;99459.00;;;2.72;100.00
10921;BME280;5513;50.580;8.818;2022-12-20T03:20:23;99454.47;;;2.77;100.00
10921;BME280;5513;50.580;8.818;2022-12-20T03:22:53;99466.53;;;2.82;100.00
10921;BME280;5513;50.580;8.818;2022-12-20T03:25:23;99461.16;;;2.87;100.00
10921;BME280;5513;50.580;8.818;2022-12-20T03:27:52;99459.47;;;2.86;100.00
10921;BME280;5513;50.580;8.818;2022-12-20T03:30:22;99468.84;;;2.93;100.00
10921;BME280;5513;50.580;8.818;2022-12-20T03:32:51;99466.25;;;2.93;100.00
10921;BME280;5513;50.580;8.818;2022-12-20T03:35:21;99459.00;;;3.03;100.00
10921;BME280;5513;50.580;8.818;2022-12-20T03:37:49;99469.91;;;2.86;100.00
10921;BME280;5513;50.580;8.818;2022-12-20T03:40:18;99479.53;;;2.85;100.00
10921;BME280;5513;50.580;8.818;2022-12-20T03:42:46;99477.56;;;2.94;100.00
10921;BME280;5513;50.580;8.818;2022-12-20T03:45:16;99479.41;;;2.90;100.00
10921;BME280;5513;50.580;8.818;2022-12-20T03:47:44;99473.38;;;2.86;100.00
10921;BME280;5513;50.580;8.818;2022-12-20T03:50:13;99466.19;;;2.95;100.00
10921;BME280;5513;50.580;8.818;2022-12-20T03:52:44;99456.72;;;2.91;100.00
10921;BME280;5513;50.580;8.818;2022-12-20T03:55:13;99451.59;;;2.86;100.00
10921;BME280;5513;50.580;8.818;2022-12-20T03:57:41;99456.84;;;2.86;100.00
10921;BME280;5513;50.580;8.818;2022-12-20T04:00:11;99457.59;;;2.91;100.00
10921;BME280;5513;50.580;8.818;2022-12-20T04:02:39;99454.91;;;2.93;100.00
10921;BME280;5513;50.580;8.818;2022-12-20T04:05:08;99456.59;;;2.95;100.00
10921;BME280;5513;50.580;8.818;2022-12-20T04:07:37;99448.78;;;2.94;100.00
10921;BME280;5513;50.580;8.818;2022-12-20T04:10:08;99453.84;;;3.00;100.00
10921;BME280;5513;50.580;8.818;2022-12-20T04:12:37;99441.88;;;2.91;100.00
10921;BME280;5513;50.580;8.818;2022-12-20T04:15:07;99458.22;;;2.99;100.00
10921;BME280;5513;50.580;8.818;2022-12-20T04:17:35;99436.47;;;2.97;100.00
10921;BME280;5513;50.580;8.818;2022-12-20T04:20:05;99445.91;;;3.03;100.00
10921;BME280;5513;50.580;8.818;2022-12-20T04:22:47;99440.88;;;2.95;100.00
10921;BME280;5513;50.580;8.818;2022-12-20T04:25:19;99455.03;;;2.90;100.00
10921;BME280;5513;50.580;8.818;2022-12-20T04:27:48;99460.00;;;2.97;100.00
10921;BME280;5513;50.580;8.818;2022-12-20T04:30:16;99460.00;;;2.97;100.00
10921;BME280;5513;50.580;8.818;2022-12-20T04:32:45;99460.16;;;2.93;100.00
10921;BME280;5513;50.580;8.818;2022-12-20T04:35:14;99451.25;;;3.00;100.00
10921;BME280;5513;50.580;8.818;2022-12-20T04:37:45;99445.22;;;2.96;100.00
10921;BME280;5513;50.580;8.818;2022-12-20T04:40:15;99440.47;;;3.10;100.00
10921;BME280;5513;50.580;8.818;2022-12-20T04:42:45;99436.78;;;3.16;100.00
10921;BME280;5513;50.580;8.818;2022-12-20T04:45:13;99428.19;;;3.12;100.00
10921;BME280;5513;50.580;8.818;2022-12-20T04:47:42;99428.09;;;3.15;100.00
10921;BME280;5513;50.580;8.818;2022-12-20T04:50:11;99431.47;;;3.19;100.00
10921;BME280;5513;50.580;8.818;2022-12-20T04:52:40;99433.16;;;3.22;100.00
10921;BME280;5513;50.580;8.818;2022-12-20T04:55:25;99412.78;;;3.31;100.00
10921;BME280;5513;50.580;8.818;2022-12-20T04:57:56;99403.16;;;3.32;100.00
10921;BME280;5513;50.580;8.818;2022-12-20T05:00:33;99410.22;;;3.30;100.00
10921;BME280;5513;50.580;8.818;2022-12-20T05:03:04;99412.69;;;3.34;100.00
10921;BME280;5513;50.580;8.818;2022-12-20T05:05:33;99414.22;;;3.41;100.00
10921;BME280;5513;50.580;8.818;2022-12-20T05:08:01;99413.59;;;3.33;100.00
10921;BME280;5513;50.580;8.818;2022-12-20T05:10:31;99404.78;;;3.36;100.00
10921;BME280;5513;50.580;8.818;2022-12-20T05:13:02;99405.44;;;3.42;100.00
10921;BME280;5513;50.580;8.818;2022-12-20T05:15:36;99391.69;;;3.36;100.00
10921;BME280;5513;50.580;8.818;2022-12-20T05:18:07;99395.84;;;3.43;100.00
10921;BME280;5513;50.580;8.818;2022-12-20T05:20:36;99396.59;;;3.47;100.00
10921;BME280;5513;50.580;8.818;2022-12-20T05:23:05;99393.09;;;3.48;100.00
10921;BME280;5513;50.580;8.818;2022-12-20T05:25:52;99409.88;;;3.40;100.00
10921;BME280;5513;50.580;8.818;2022-12-20T05:28:40;99398.31;;;3.48;100.00
10921;BME280;5513;50.580;8.818;2022-12-20T05:31:09;99399.75;;;3.58;100.00
10921;BME280;5513;50.580;8.818;2022-12-20T05:33:38;99400.84;;;3.51;100.00
10921;BME280;5513;50.580;8.818;2022-12-20T05:36:07;99422.78;;;3.47;100.00
10921;BME280;5513;50.580;8.818;2022-12-20T05:38:36;99411.22;;;3.54;100.00
10921;BME280;5513;50.580;8.818;2022-12-20T05:41:05;99411.72;;;3.65;100.00
10921;BME280;5513;50.580;8.818;2022-12-20T05:43:34;99411.72;;;3.65;100.00
10921;BME280;5513;50.580;8.818;2022-12-20T05:46:07;99397.72;;;3.66;100.00
10921;BME280;5513;50.580;8.818;2022-12-20T05:48:36;99386.31;;;3.68;100.00
10921;BME280;5513;50.580;8.818;2022-12-20T05:51:05;99382.97;;;3.63;100.00
10921;BME280;5513;50.580;8.818;2022-12-20T05:53:37;99374.69;;;3.76;100.00
10921;BME280;5513;50.580;8.818;2022-12-20T05:56:06;99378.16;;;3.76;100.00
10921;BME280;5513;50.580;8.818;2022-12-20T05:58:37;99386.00;;;3.78;100.00
10921;BME280;5513;50.580;8.818;2022-12-20T06:01:08;99376.53;;;3.73;100.00
10921;BME280;5513;50.580;8.818;2022-12-20T06:03:37;99378.44;;;3.68;100.00
10921;BME280;5513;50.580;8.818;2022-12-20T06:06:07;99382.63;;;3.74;100.00
10921;BME280;5513;50.580;8.818;2022-12-20T06:08:41;99362.69;;;3.70;100.00
10921;BME280;5513;50.580;8.818;2022-12-20T06:11:09;99364.19;;;3.77;100.00
10921;BME280;5513;50.580;8.818;2022-12-20T06:13:38;99375.38;;;3.82;100.00
10921;BME280;5513;50.580;8.818;2022-12-20T06:16:08;99376.28;;;3.81;100.00
10921;BME280;5513;50.580;8.818;2022-12-20T06:18:36;99385.19;;;3.76;100.00
10921;BME280;5513;50.580;8.818;2022-12-20T06:21:07;99392.06;;;3.80;100.00
10921;BME280;5513;50.580;8.818;2022-12-20T06:23:36;99384.63;;;3.66;100.00
10921;BME280;5513;50.580;8.818;2022-12-20T06:26:05;99386.88;;;3.78;100.00
10921;BME280;5513;50.580;8.818;2022-12-20T06:28:36;99379.25;;;3.70;100.00
10921;BME280;5513;50.580;8.818;2022-12-20T06:31:10;99382.72;;;3.71;100.00
10921;BME280;5513;50.580;8.818;2022-12-20T06:33:40;99381.31;;;3.61;100.00
10921;BME280;5513;50.580;8.818;2022-12-20T06:36:09;99370.88;;;3.59;100.00
10921;BME280;5513;50.580;8.818;2022-12-20T06:38:38;99378.69;;;3.61;100.00
10921;BME280;5513;50.580;8.818;2022-12-20T06:41:07;99373.25;;;3.67;100.00
10921;BME280;5513;50.580;8.818;2022-12-20T06:43:35;99374.00;;;3.70;100.00
10921;BME280;5513;50.580;8.818;2022-12-20T06:46:07;99374.81;;;3.72;100.00
10921;BME280;5513;50.580;8.818;2022-12-20T06:48:37;99378.63;;;3.62;100.00
10921;BME280;5513;50.580;8.818;2022-12-20T06:51:06;99380.25;;;3.66;100.00
10921;BME280;5513;50.580;8.818;2022-12-20T06:53:36;99374.81;;;3.72;100.00
10921;BME280;5513;50.580;8.818;2022-12-20T06:56:05;99384.13;;;3.81;100.00
10921;BME280;5513;50.580;8.818;2022-12-20T06:58:34;99387.78;;;3.77;100.00
10921;BME280;5513;50.580;8.818;2022-12-20T07:01:04;99398.44;;;3.71;100.00
10921;BME280;5513;50.580;8.818;2022-12-20T07:03:32;99390.22;;;3.82;100.00
10921;BME280;5513;50.580;8.818;2022-12-20T07:06:05;99392.16;;;3.77;100.00
10921;BME280;5513;50.580;8.818;2022-12-20T07:08:35;99388.41;;;3.84;100.00
10921;BME280;5513;50.580;8.818;2022-12-20T07:11:04;99390.47;;;3.74;100.00
10921;BME280;5513;50.580;8.818;2022-12-20T07:13:33;99392.00;;;3.81;100.00
10921;BME280;5513;50.580;8.818;2022-12-20T07:16:04;99399.97;;;3.78;100.00
10921;BME280;5513;50.580;8.818;2022-12-20T07:18:33;99389.25;;;3.84;100.00
10921;BME280;5513;50.580;8.818;2022-12-20T07:21:04;99396.19;;;3.87;100.00
10921;BME280;5513;50.580;8.818;2022-12-20T07:23:33;99390.97;;;3.85;100.00
10921;BME280;5513;50.580;8.818;2022-12-20T07:26:02;99390.88;;;3.88;100.00
10921;BME280;5513;50.580;8.818;2022-12-20T07:28:31;99380.41;;;3.88;100.00
10921;BME280;5513;50.580;8.818;2022-12-20T07:31:00;99364.56;;;3.91;100.00
10921;BME280;5513;50.580;8.818;2022-12-20T07:33:30;99368.97;;;3.91;100.00
10921;BME280;5513;50.580;8.818;2022-12-20T07:36:00;99367.94;;;3.95;100.00
10921;BME280;5513;50.580;8.818;2022-12-20T07:38:30;99357.25;;;4.01;100.00
10921;BME280;5513;50.580;8.818;2022-12-20T07:40:59;99356.16;;;4.08;100.00
10921;BME280;5513;50.580;8.818;2022-12-20T07:43:28;99362.38;;;4.06;100.00
10921;BME280;5513;50.580;8.818;2022-12-20T07:45:56;99354.22;;;4.13;100.00
10921;BME280;5513;50.580;8.818;2022-12-20T07:48:26;99354.22;;;4.13;100.00
10921;BME280;5513;50.580;8.818;2022-12-20T07:50:57;99348.06;;;4.14;100.00
10921;BME280;5513;50.580;8.818;2022-12-20T07:53:28;99349.69;;;4.18;100.00
10921;BME280;5513;50.580;8.818;2022-12-20T07:56:00;99349.81;;;4.15;100.00
10921;BME280;5513;50.580;8.818;2022-12-20T07:58:31;99352.41;;;4.15;100.00
10921;BME280;5513;50.580;8.818;2022-12-20T08:01:02;99355.56;;;4.25;100.00
10921;BME280;5513;50.580;8.818;2022-12-20T08:03:34;99343.88;;;4.34;100.00
10921;BME280;5513;50.580;8.818;2022-12-20T08:06:06;99347.16;;;4.40;100.00
10921;BME280;5513;50.580;8.818;2022-12-20T08:08:38;99348.97;;;4.38;100.00
10921;BME280;5513;50.580;8.818;2022-12-20T08:11:13;99348.78;;;4.43;100.00
10921;BME280;5513;50.580;8.818;2022-12-20T08:13:43;99337.97;;;4.52;100.00
10921;BME280;5513;50.580;8.818;2022-12-20T08:16:16;99335.28;;;4.53;100.00
10921;BME280;5513;50.580;8.818;2022-12-20T08:18:45;99324.66;;;4.58;100.00
10921;BME280;5513;50.580;8.818;2022-12-20T08:21:13;99323.84;;;4.56;100.00
10921;BME280;5513;50.580;8.818;2022-12-20T08:23:42;99316.66;;;4.61;100.00
10921;BME280;5513;50.580;8.818;2022-12-20T08:26:13;99321.84;;;4.63;100.00
10921;BME280;5513;50.580;8.818;2022-12-20T08:28:41;99324.19;;;4.70;100.00
10921;BME280;5513;50.580;8.818;2022-12-20T08:31:10;99326.00;;;4.68;100.00
10921;BME280;5513;50.580;8.818;2022-12-20T08:33:39;99312.97;;;4.67;100.00
10921;BME280;5513;50.580;8.818;2022-12-20T08:36:11;99304.09;;;4.69;100.00
10921;BME280;5513;50.580;8.818;2022-12-20T08:38:40;99307.53;;;4.71;100.00
10921;BME280;5513;50.580;8.818;2022-12-20T08:41:16;99302.53;;;4.65;100.00
10921;BME280;5513;50.580;8.818;2022-12-20T08:43:45;99311.81;;;4.74;100.00
10921;BME280;5513;50.580;8.818;2022-12-20T08:46:13;99317.09;;;4.72;100.00
10921;BME280;5513;50.580;8.818;2022-12-20T08:48:42;99323.09;;;4.76;100.00
10921;BME280;5513;50.580;8.818;2022-12-20T08:51:11;99322.06;;;4.80;100.00
10921;BME280;5513;50.580;8.818;2022-12-20T08:53:40;99312.41;;;4.80;100.00
10921;BME280;5513;50.580;8.818;2022-12-20T08:56:11;99314.88;;;4.85;100.00
10921;BME280;5513;50.580;8.818;2022-12-20T08:58:42;99314.63;;;4.91;100.00
10921;BME280;5513;50.580;8.818;2022-12-20T09:01:13;99313.13;;;4.85;100.00
10921;BME280;5513;50.580;8.818;2022-12-20T09:03:42;99305.31;;;4.84;100.00
10921;BME280;5513;50.580;8.818;2022-12-20T09:06:12;99306.88;;;4.88;100.00
10921;BME280;5513;50.580;8.818;2022-12-20T09:08:41;99295.06;;;5.00;100.00
10921;BME280;5513;50.580;8.818;2022-12-20T09:11:12;99313.50;;;4.98;100.00
10921;BME280;5513;50.580;8.818;2022-12-20T09:13:46;99307.69;;;4.90;100.00
10921;BME280;5513;50.580;8.818;2022-12-20T09:16:17;99313.63;;;4.95;100.00
10921;BME280;5513;50.580;8.818;2022-12-20T09:18:47;99297.88;;;4.95;100.00
10921;BME280;5513;50.580;8.818;2022-12-20T09:21:16;99303.72;;;5.02;100.00
10921;BME280;5513;50.580;8.818;2022-12-20T09:23:48;99298.44;;;5.03;100.00
10921;BME280;5513;50.580;8.818;2022-12-20T09:26:18;99295.25;;;5.17;100.00
10921;BME280;5513;50.580;8.818;2022-12-20T09:28:49;99294.47;;;5.15;100.00
10921;BME280;5513;50.580;8.818;2022-12-20T09:31:20;99296.09;;;5.17;100.00
10921;BME280;5513;50.580;8.818;2022-12-20T09:33:51;99295.53;;;5.09;100.00
10921;BME280;5513;50.580;8.818;2022-12-20T09:36:21;99291.91;;;5.13;100.00
10921;BME280;5513;50.580;8.818;2022-12-20T09:38:54;99278.94;;;5.09;100.00
10921;BME280;5513;50.580;8.818;2022-12-20T09:41:28;99279.31;;;5.22;100.00
10921;BME280;5513;50.580;8.818;2022-12-20T09:44:11;99275.78;;;5.23;100.00
10921;BME280;5513;50.580;8.818;2022-12-20T09:46:42;99271.25;;;5.26;100.00
10921;BME280;5513;50.580;8.818;2022-12-20T09:49:14;99271.94;;;5.31;100.00
10921;BME280;5513;50.580;8.818;2022-12-20T09:52:06;99267.31;;;5.36;100.00
10921;BME280;5513;50.580;8.818;2022-12-20T09:54:45;99253.47;;;5.33;100.00
10921;BME280;5513;50.580;8.818;2022-12-20T09:57:24;99257.06;;;5.30;100.00
10921;BME280;5513;50.580;8.818;2022-12-20T09:59:56;99250.66;;;5.37;100.00
10921;BME280;5513;50.580;8.818;2022-12-20T10:02:28;99250.59;;;5.39;100.00
10921;BME280;5513;50.580;8.818;2022-12-20T10:05:23;99238.19;;;5.42;100.00
10921;BME280;5513;50.580;8.818;2022-12-20T10:07:58;99230.19;;;5.45;100.00
10921;BME280;5513;50.580;8.818;2022-12-20T10:10:41;99230.47;;;5.60;100.00
10921;BME280;5513;50.580;8.818;2022-12-20T10:13:23;99220.28;;;5.52;100.00
10921;BME280;5513;50.580;8.818;2022-12-20T10:16:06;99229.53;;;5.61;100.00
10921;BME280;5513;50.580;8.818;2022-12-20T10:18:53;99229.25;;;5.67;100.00
10921;BME280;5513;50.580;8.818;2022-12-20T10:21:30;99227.47;;;5.67;100.00
10921;BME280;5513;50.580;8.818;2022-12-20T10:24:09;99219.88;;;5.61;100.00
10921;BME280;5513;50.580;8.818;2022-12-20T10:26:41;99222.31;;;5.66;100.00
10921;BME280;5513;50.580;8.818;2022-12-20T10:29:10;99199.41;;;5.69;100.00
10921;BME280;5513;50.580;8.818;2022-12-20T10:31:41;99200.63;;;5.81;100.00
10921;BME280;5513;50.580;8.818;2022-12-20T10:34:11;99200.56;;;5.83;100.00
10921;BME280;5513;50.580;8.818;2022-12-20T10:36:39;99200.75;;;5.78;100.00
10921;BME280;5513;50.580;8.818;2022-12-20T10:39:08;99203.31;;;5.80;100.00
10921;BME280;5513;50.580;8.818;2022-12-20T10:41:47;99184.19;;;5.76;100.00
10921;BME280;5513;50.580;8.818;2022-12-20T10:44:23;99172.31;;;5.67;100.00
10921;BME280;5513;50.580;8.818;2022-12-20T10:46:57;99177.16;;;5.77;100.00
10921;BME280;5513;50.580;8.818;2022-12-20T10:49:29;99178.75;;;5.81;100.00
10921;BME280;5513;50.580;8.818;2022-12-20T10:52:09;99174.34;;;5.81;100.00
10921;BME280;5513;50.580;8.818;2022-12-20T10:54:39;99169.00;;;5.83;100.00
10921;BME280;5513;50.580;8.818;2022-12-20T10:57:16;99166.56;;;5.78;100.00
10921;BME280;5513;50.580;8.818;2022-12-20T10:59:48;99160.28;;;5.82;100.00
10921;BME280;5513;50.580;8.818;2022-12-20T11:02:30;99162.06;;;5.82;100.00
10921;BME280;5513;50.580;8.818;2022-12-20T11:05:29;99168.34;;;5.78;100.00
10921;BME280;5513;50.580;8.818;2022-12-20T11:08:06;99169.09;;;5.81;100.00
10921;BME280;5513;50.580;8.818;2022-12-20T11:11:13;99164.38;;;5.88;100.00
10921;BME280;5513;50.580;8.818;2022-12-20T11:13:44;99151.47;;;5.83;100.00
10921;BME280;5513;50.580;8.818;2022-12-20T11:16:27;99149.84;;;5.81;100.00
10921;BME280;5513;50.580;8.818;2022-12-20T11:19:12;99162.31;;;5.75;100.00
10921;BME280;5513;50.580;8.818;2022-12-20T11:21:53;99161.06;;;5.84;100.00
10921;BME280;5513;50.580;8.818;2022-12-20T11:24:32;99150.19;;;5.73;100.00
10921;BME280;5513;50.580;8.818;2022-12-20T11:27:14;99145.41;;;5.62;100.00
10921;BME280;5513;50.580;8.818;2022-12-20T11:30:03;99143.03;;;5.56;100.00
10921;BME280;5513;50.580;8.818;2022-12-20T11:32:43;99135.00;;;5.59;100.00
10921;BME280;5513;50.580;8.818;2022-12-20T11:35:19;99130.03;;;5.53;100.00
10921;BME280;5513;50.580;8.818;2022-12-20T11:38:02;99130.38;;;5.45;100.00
10921;BME280;5513;50.580;8.818;2022-12-20T11:40:40;99131.28;;;5.44;100.00
10921;BME280;5513;50.580;8.818;2022-12-20T11:43:20;99123.41;;;5.44;100.00
10921;BME280;5513;50.580;8.818;2022-12-20T11:46:03;99116.63;;;5.39;100.00
10921;BME280;5513;50.580;8.818;2022-12-20T11:48:48;99123.88;;;5.34;100.00
10921;BME280;5513;50.580;8.818;2022-12-20T11:51:25;99102.94;;;5.32;100.00
10921;BME280;5513;50.580;8.818;2022-12-20T11:54:08;99096.94;;;5.29;100.00
10921;BME280;5513;50.580;8.818;2022-12-20T11:56:41;99098.72;;;5.28;100.00
10921;BME280;5513;50.580;8.818;2022-12-20T11:59:19;99100.50;;;5.28;100.00
10921;BME280;5513;50.580;8.818;2022-12-20T12:01:54;99108.59;;;5.23;100.00
10921;BME280;5513;50.580;8.818;2022-12-20T12:04:26;99114.09;;;5.17;100.00
10921;BME280;5513;50.580;8.818;2022-12-20T12:07:02;99108.00;;;5.16;100.00
10921;BME280;5513;50.580;8.818;2022-12-20T12:09:34;99106.38;;;5.14;100.00
10921;BME280;5513;50.580;8.818;2022-12-20T12:12:09;99095.72;;;5.17;100.00
10921;BME280;5513;50.580;8.818;2022-12-20T12:14:47;99089.53;;;5.18;100.00
10921;BME280;5513;50.580;8.818;2022-12-20T12:17:25;99091.00;;;5.25;100.00
10921;BME280;5513;50.580;8.818;2022-12-20T12:20:03;99096.25;;;5.25;100.00
10921;BME280;5513;50.580;8.818;2022-12-20T12:22:38;99093.88;;;5.19;100.00
10921;BME280;5513;50.580;8.818;2022-12-20T12:25:11;99080.63;;;5.22;100.00
10921;BME280;5513;50.580;8.818;2022-12-20T12:27:45;99079.81;;;5.20;100.00
10921;BME280;5513;50.580;8.818;2022-12-20T12:30:15;99078.78;;;5.24;100.00
10921;BME280;5513;50.580;8.818;2022-12-20T12:32:46;99062.81;;;5.29;100.00
10921;BME280;5513;50.580;8.818;2022-12-20T12:35:51;99072.13;;;5.36;100.00
10921;BME280;5513;50.580;8.818;2022-12-20T12:38:54;99060.44;;;5.43;100.00
10921;BME280;5513;50.580;8.818;2022-12-20T12:41:48;99069.25;;;5.42;100.00
10921;BME280;5513;50.580;8.818;2022-12-20T12:44:33;99074.44;;;5.43;100.00
10921;BME280;5513;50.580;8.818;2022-12-20T12:47:12;99073.25;;;5.51;100.00
10921;BME280;5513;50.580;8.818;2022-12-20T12:49:46;99073.81;;;5.57;100.00
10921;BME280;5513;50.580;8.818;2022-12-20T12:52:27;99064.94;;;5.60;100.00
10921;BME280;5513;50.580;8.818;2022-12-20T12:55:36;99073.47;;;5.65;100.00
10921;BME280;5513;50.580;8.818;2022-12-20T12:58:14;99059.41;;;5.66;100.00
10921;BME280;5513;50.580;8.818;2022-12-20T13:00:51;99057.50;;;5.69;100.00
10921;BME280;5513;50.580;8.818;2022-12-20T13:03:36;99053.13;;;5.68;100.00
10921;BME280;5513;50.580;8.818;2022-12-20T13:06:52;99049.31;;;5.75;100.00
10921;BME280;5513;50.580;8.818;2022-12-20T13:09:40;99042.63;;;5.68;100.00
10921;BME280;5513;50.580;8.818;2022-12-20T13:18:34;99028.78;;;5.65;100.00
10921;BME280;5513;50.580;8.818;2022-12-20T13:21:30;99032.13;;;5.68;100.00
10921;BME280;5513;50.580;8.818;2022-12-20T13:27:20;99043.19;;;5.56;100.00
10921;BME280;5513;50.580;8.818;2022-12-20T13:30:23;99037.69;;;5.62;100.00
10921;BME280;5513;50.580;8.818;2022-12-20T13:36:02;99041.44;;;5.57;100.00
10921;BME280;5513;50.580;8.818;2022-12-20T13:38:38;99041.34;;;5.58;100.00
10921;BME280;5513;50.580;8.818;2022-12-20T13:41:30;99026.25;;;5.63;100.00
10921;BME280;5513;50.580;8.818;2022-12-20T13:44:18;99047.34;;;5.62;100.00
10921;BME280;5513;50.580;8.818;2022-12-20T13:46:54;99048.31;;;5.59;100.00
10921;BME280;5513;50.580;8.818;2022-12-20T13:49:28;99038.53;;;5.63;100.00
10921;BME280;5513;50.580;8.818;2022-12-20T13:52:21;99035.81;;;5.64;100.00
10921;BME280;5513;50.580;8.818;2022-12-20T13:54:53;99038.59;;;5.61;100.00
10921;BME280;5513;50.580;8.818;2022-12-20T13:57:28;99047.97;;;5.67;100.00
10921;BME280;5513;50.580;8.818;2022-12-20T14:00:01;99034.06;;;5.65;100.00
10921;BME280;5513;50.580;8.818;2022-12-20T14:02:39;99045.22;;;5.70;100.00